Many, Louisiana
Current Conditions -  °F | °C
As of 1:56 AM on Sunday 23 Nov 2014 (Local Time) from KAQV Reporting Station
Light Rain Light Rain  
Wind Chill: 65°   Ceiling: 900
Heat Index: 65°   Visibility: 8mi
Dew Point: 63°   Wind: 6mph
Humidity: 93%   Direction: 170°S
Pressure: 29.72"   Gusts: NA
Location:  31.57°N, 93.48°W
Report Text: KAQV 230756Z AUTO 17005KT 8SM -RA BKN009 OVC012 18/17 A2972 RMK AO2 RAB29 CIG 006V010 SLP063 P0002 T01830172
Loading
Personal Weather Stations






























Interactive Weather Map New forecast layout! Learn more

10-Day Weather Forecast

Advertisements
Track Severe Weather on mobile